createdAt,value
2023-04-09T00:01:16.333Z,2.17
2023-04-09T00:03:44.877Z,2.30
2023-04-09T00:06:13.554Z,2.17
2023-04-09T00:08:41.950Z,2.40
2023-04-09T00:11:10.465Z,2.50
2023-04-09T00:13:40.381Z,2.50
2023-04-09T00:16:09.437Z,2.50
2023-04-09T00:18:37.919Z,2.57
2023-04-09T00:21:08.534Z,2.30
2023-04-09T00:23:37.052Z,2.63
2023-04-09T00:26:05.843Z,2.37
2023-04-09T00:28:34.231Z,2.50
2023-04-09T00:31:04.030Z,2.53
2023-04-09T00:33:32.476Z,2.50
2023-04-09T00:36:01.049Z,2.57
2023-04-09T00:38:29.501Z,2.37
2023-04-09T00:40:57.928Z,2.57
2023-04-09T00:43:27.055Z,2.57
2023-04-09T00:45:55.644Z,2.03
2023-04-09T00:48:25.621Z,2.70
2023-04-09T00:50:54.052Z,2.40
2023-04-09T00:53:22.550Z,2.10
2023-04-09T00:55:50.996Z,2.50
2023-04-09T00:58:19.422Z,2.10
2023-04-09T01:00:47.917Z,2.40
2023-04-09T01:03:16.555Z,2.40
2023-04-09T01:05:52.637Z,2.60
2023-04-09T01:08:25.650Z,2.33
2023-04-09T01:10:56.208Z,2.20
2023-04-09T01:13:27.461Z,2.70
2023-04-09T01:15:57.501Z,2.30
2023-04-09T01:18:29.426Z,2.40
2023-04-09T01:21:01.228Z,2.30
2023-04-09T01:23:34.228Z,2.40
2023-04-09T01:26:04.976Z,2.40
2023-04-09T01:28:36.031Z,2.43
2023-04-09T01:31:06.098Z,2.50
2023-04-09T01:33:35.525Z,2.80
2023-04-09T01:36:05.776Z,2.30
2023-04-09T01:38:35.266Z,2.60
2023-04-09T01:41:05.148Z,2.40
2023-04-09T01:43:35.691Z,2.57
2023-04-09T01:46:04.389Z,2.20
2023-04-09T01:48:33.434Z,1.97
2023-04-09T01:51:02.012Z,2.30
2023-04-09T01:53:31.189Z,2.00
2023-04-09T01:56:01.316Z,2.10
2023-04-09T01:58:29.987Z,1.93
2023-04-09T02:01:07.244Z,2.10
2023-04-09T02:03:37.563Z,2.00
2023-04-09T02:06:09.633Z,2.13
2023-04-09T02:08:38.705Z,1.90
2023-04-09T02:11:07.689Z,2.23
2023-04-09T02:13:36.819Z,2.10
2023-04-09T02:16:07.129Z,2.30
2023-04-09T02:18:35.628Z,2.10
2023-04-09T02:21:06.772Z,2.10
2023-04-09T02:23:35.204Z,2.20
2023-04-09T02:26:03.807Z,2.33
2023-04-09T02:28:32.235Z,2.40
2023-04-09T02:31:00.938Z,2.27
2023-04-09T02:33:30.816Z,2.13
2023-04-09T02:35:59.244Z,2.27
2023-04-09T02:38:27.838Z,2.33
2023-04-09T02:40:56.337Z,2.27
2023-04-09T02:43:24.847Z,2.00
2023-04-09T02:45:53.256Z,2.20
2023-04-09T02:48:21.663Z,2.10
2023-04-09T02:50:51.464Z,2.30
2023-04-09T02:53:21.543Z,2.50
2023-04-09T02:55:50.021Z,1.97
2023-04-09T02:58:18.419Z,2.07
2023-04-09T03:00:46.846Z,2.20
2023-04-09T03:03:15.450Z,2.17
2023-04-09T03:05:44.470Z,2.40
2023-04-09T03:08:14.274Z,2.20
2023-04-09T03:10:42.677Z,1.93
2023-04-09T03:13:11.094Z,2.10
2023-04-09T03:15:39.508Z,2.17
2023-04-09T03:18:07.975Z,2.10
2023-04-09T03:20:39.510Z,2.00
2023-04-09T03:23:07.979Z,2.20
2023-04-09T03:25:37.797Z,2.03
2023-04-09T03:28:06.300Z,2.20
2023-04-09T03:30:34.747Z,2.23
2023-04-09T03:33:03.192Z,2.20
2023-04-09T03:35:31.669Z,2.20
2023-04-09T03:38:00.410Z,2.33
2023-04-09T03:40:29.572Z,2.10
2023-04-09T03:42:59.566Z,2.23
2023-04-09T03:45:27.993Z,2.73
2023-04-09T03:47:57.868Z,2.30
2023-04-09T03:50:26.389Z,2.47
2023-04-09T03:52:54.846Z,2.30
2023-04-09T03:55:23.354Z,2.30
2023-04-09T03:57:51.747Z,2.50
2023-04-09T04:00:22.501Z,2.17
2023-04-09T04:02:51.214Z,2.20
2023-04-09T04:05:19.850Z,2.50
2023-04-09T04:07:48.255Z,2.30
2023-04-09T04:10:16.729Z,2.50
2023-04-09T04:12:45.283Z,2.50
2023-04-09T04:15:13.953Z,2.20
2023-04-09T04:17:43.878Z,2.63
2023-04-09T04:20:12.806Z,2.30
2023-04-09T04:22:41.250Z,2.40
2023-04-09T04:25:09.885Z,2.33
2023-04-09T04:27:38.295Z,2.17
2023-04-09T04:30:07.320Z,2.20
2023-04-09T04:32:35.755Z,2.13
2023-04-09T04:35:05.724Z,2.33
2023-04-09T04:37:34.176Z,2.50
2023-04-09T04:40:04.274Z,2.37
2023-04-09T04:42:32.765Z,2.47
2023-04-09T04:45:01.264Z,2.33
2023-04-09T04:47:29.703Z,2.20
2023-04-09T04:49:58.410Z,2.83
2023-04-09T04:52:28.205Z,2.80
2023-04-09T04:54:56.616Z,2.23
2023-04-09T04:57:25.022Z,2.60
2023-04-09T04:59:53.452Z,2.30
2023-04-09T05:02:22.038Z,2.50
2023-04-09T05:04:50.533Z,2.70
2023-04-09T05:07:18.958Z,2.70
2023-04-09T05:09:48.759Z,2.77
2023-04-09T05:12:18.148Z,2.90
2023-04-09T05:14:46.779Z,2.83
2023-04-09T05:17:15.601Z,3.07
2023-04-09T05:19:44.019Z,3.13
2023-04-09T05:22:12.878Z,3.03
2023-04-09T05:24:41.591Z,3.07
2023-04-09T05:27:11.376Z,2.97
2023-04-09T05:29:39.851Z,3.27
2023-04-09T05:32:09.516Z,3.03
2023-04-09T05:34:37.946Z,3.30
2023-04-09T05:37:06.395Z,3.37
2023-04-09T05:39:34.937Z,3.30
2023-04-09T05:42:03.481Z,3.40
2023-04-09T05:44:33.305Z,3.50
2023-04-09T05:47:01.983Z,3.37
2023-04-09T05:49:30.577Z,3.37
2023-04-09T05:51:59.054Z,3.40
2023-04-09T05:54:27.514Z,3.33
2023-04-09T05:56:55.936Z,3.47
2023-04-09T05:59:24.330Z,3.30
2023-04-09T06:01:54.140Z,3.40
2023-04-09T06:04:22.839Z,3.13
2023-04-09T06:06:51.806Z,3.20
2023-04-09T06:09:20.215Z,3.50
2023-04-09T06:11:48.643Z,3.50
2023-04-09T06:14:18.266Z,3.60
2023-04-09T06:16:46.966Z,3.83
2023-04-09T06:19:18.746Z,3.60
2023-04-09T06:21:47.191Z,3.40
2023-04-09T06:24:15.597Z,3.67
2023-04-09T06:26:44.002Z,3.73
2023-04-09T06:29:12.413Z,3.57
2023-04-09T06:31:40.971Z,4.10
2023-04-09T06:34:09.606Z,3.63
2023-04-09T06:36:40.553Z,3.80
2023-04-09T06:39:09.003Z,3.70
2023-04-09T06:41:38.270Z,3.87
2023-04-09T06:44:06.817Z,4.60
2023-04-09T06:46:35.532Z,4.93
2023-04-09T06:49:03.991Z,5.90
2023-04-09T06:51:32.875Z,5.70
2023-04-09T06:54:02.692Z,5.60
2023-04-09T06:56:31.142Z,5.23
2023-04-09T06:58:59.863Z,5.90
2023-04-09T07:01:28.453Z,5.70
2023-04-09T07:03:57.202Z,5.50
2023-04-09T07:06:25.905Z,5.70
2023-04-09T07:08:54.765Z,5.47
2023-04-09T07:11:24.788Z,4.63
2023-04-09T07:13:53.747Z,5.30
2023-04-09T07:16:22.326Z,4.63
2023-04-09T07:18:50.732Z,4.90
2023-04-09T07:21:19.234Z,5.10
2023-04-09T07:23:47.955Z,4.50
2023-04-09T07:26:16.379Z,4.80
2023-04-09T07:28:46.216Z,3.97
2023-04-09T07:31:14.684Z,4.17
2023-04-09T07:33:43.113Z,4.27
2023-04-09T07:36:11.704Z,4.20
2023-04-09T07:38:40.201Z,4.77
2023-04-09T07:41:08.687Z,4.63
2023-04-09T07:43:37.624Z,4.47
2023-04-09T07:46:07.514Z,4.60
2023-04-09T07:48:35.972Z,4.20
2023-04-09T07:51:04.574Z,4.57
2023-04-09T07:53:32.979Z,4.10
2023-04-09T07:56:01.414Z,4.07
2023-04-09T07:58:29.871Z,4.10
2023-04-09T08:00:58.286Z,3.80
2023-04-09T08:03:28.268Z,3.40
2023-04-09T08:05:56.951Z,3.33
2023-04-09T08:08:25.414Z,3.20
2023-04-09T08:10:53.822Z,3.60
2023-04-09T08:13:22.243Z,3.20
2023-04-09T08:15:50.838Z,3.30
2023-04-09T08:18:19.247Z,3.50
2023-04-09T08:20:49.029Z,3.53
2023-04-09T08:23:17.408Z,3.40
2023-04-09T08:25:45.835Z,3.33
2023-04-09T08:28:14.264Z,3.60
2023-04-09T08:30:42.707Z,3.20
2023-04-09T08:33:11.109Z,3.53
2023-04-09T08:35:41.133Z,3.63
2023-04-09T08:38:11.202Z,3.60
2023-04-09T08:40:39.849Z,3.30
2023-04-09T08:43:09.050Z,3.00
2023-04-09T08:45:37.586Z,3.00
2023-04-09T08:48:07.114Z,3.50
2023-04-09T08:50:35.659Z,3.20
2023-04-09T08:53:04.959Z,3.40
2023-04-09T08:55:35.585Z,3.23
2023-04-09T08:58:07.375Z,3.60
2023-04-09T09:00:35.831Z,3.50
2023-04-09T09:03:05.453Z,3.30
2023-04-09T09:05:41.077Z,3.20
2023-04-09T09:08:10.159Z,2.97
2023-04-09T09:10:44.015Z,3.17
2023-04-09T09:13:19.250Z,3.17
2023-04-09T09:15:50.487Z,3.00
2023-04-09T09:18:19.800Z,3.07
2023-04-09T09:20:48.243Z,3.30
2023-04-09T09:23:16.707Z,3.30
2023-04-09T09:25:46.760Z,3.00
2023-04-09T09:28:15.355Z,3.40
2023-04-09T09:30:43.821Z,3.13
2023-04-09T09:33:12.986Z,3.10
2023-04-09T09:35:59.284Z,2.97
2023-04-09T09:38:27.789Z,2.93
2023-04-09T09:40:57.696Z,2.93
2023-04-09T09:43:26.478Z,2.77
2023-04-09T09:45:55.512Z,3.00
2023-04-09T09:48:24.485Z,3.10
2023-04-09T09:50:53.820Z,2.87
2023-04-09T09:53:24.388Z,2.47
2023-04-09T09:55:55.028Z,3.10
2023-04-09T09:58:27.011Z,2.60
2023-04-09T10:00:57.488Z,2.70
2023-04-09T10:03:27.713Z,2.90
2023-04-09T10:05:56.513Z,2.77
2023-04-09T10:08:25.429Z,2.90
2023-04-09T10:10:54.003Z,2.50
2023-04-09T10:13:37.685Z,2.77
2023-04-09T10:16:08.720Z,3.00
2023-04-09T10:18:37.564Z,3.00
2023-04-09T10:21:10.489Z,2.87
2023-04-09T10:23:40.798Z,2.87
2023-04-09T10:26:10.287Z,2.83
2023-04-09T10:28:39.267Z,2.73
2023-04-09T10:31:09.357Z,2.83
2023-04-09T10:33:38.750Z,2.70
2023-04-09T10:36:10.275Z,2.83
2023-04-09T10:38:40.846Z,2.73
2023-04-09T10:41:10.392Z,2.70
2023-04-09T10:43:38.979Z,2.47
2023-04-09T10:46:09.993Z,2.70
2023-04-09T10:48:38.441Z,2.80
2023-04-09T10:51:07.517Z,2.60
2023-04-09T10:53:35.927Z,2.90
2023-04-09T10:56:16.316Z,2.70
2023-04-09T10:58:44.737Z,2.90
2023-04-09T11:01:24.176Z,2.47
2023-04-09T11:04:10.716Z,2.53
2023-04-09T11:06:43.526Z,2.60
2023-04-09T11:09:11.956Z,2.50
2023-04-09T11:11:40.844Z,2.70
2023-04-09T11:14:09.342Z,2.60
2023-04-09T11:16:39.184Z,2.63
2023-04-09T11:19:08.433Z,2.60
2023-04-09T11:21:37.354Z,2.50
2023-04-09T11:24:05.768Z,2.70
2023-04-09T11:26:37.477Z,2.50
2023-04-09T11:29:08.240Z,2.53
2023-04-09T11:31:36.952Z,2.63
2023-04-09T11:34:06.795Z,2.53
2023-04-09T11:36:36.554Z,2.50
2023-04-09T11:39:05.074Z,2.40
2023-04-09T11:41:36.855Z,2.50
2023-04-09T11:44:05.347Z,2.50
2023-04-09T11:46:34.287Z,2.40
2023-04-09T11:49:02.991Z,2.80
2023-04-09T11:51:32.987Z,2.50
2023-04-09T11:54:03.612Z,2.30
2023-04-09T11:56:32.518Z,2.40
2023-04-09T11:59:01.199Z,3.03
2023-04-09T12:01:33.161Z,2.70
2023-04-09T12:04:02.105Z,2.77
2023-04-09T12:06:31.196Z,2.80
2023-04-09T12:09:01.319Z,2.60
2023-04-09T12:11:31.890Z,2.47
2023-04-09T12:14:03.948Z,2.30
2023-04-09T12:16:32.985Z,2.70
2023-04-09T12:19:02.624Z,2.50
2023-04-09T12:21:46.566Z,2.53
2023-04-09T12:24:17.096Z,2.60
2023-04-09T12:26:45.556Z,2.53
2023-04-09T12:29:14.044Z,2.70
2023-04-09T12:31:42.526Z,2.80
2023-04-09T12:34:11.074Z,2.57
2023-04-09T12:36:39.632Z,2.90
2023-04-09T12:39:08.051Z,2.70
2023-04-09T12:41:38.121Z,3.00
2023-04-09T12:44:07.408Z,2.73
2023-04-09T12:46:35.847Z,2.70
2023-04-09T12:49:04.358Z,2.50
2023-04-09T12:51:32.822Z,2.63
2023-04-09T12:54:03.996Z,2.90
2023-04-09T12:56:32.651Z,2.77
2023-04-09T12:59:02.473Z,2.50
2023-04-09T13:01:30.954Z,3.20
2023-04-09T13:03:59.487Z,2.83
2023-04-09T13:06:28.116Z,2.80
2023-04-09T13:08:56.524Z,2.70
2023-04-09T13:11:24.941Z,2.73
2023-04-09T13:13:53.994Z,3.10
2023-04-09T13:16:23.988Z,3.27
2023-04-09T13:18:52.870Z,3.07
2023-04-09T13:21:21.414Z,3.07
2023-04-09T13:23:49.822Z,2.90
2023-04-09T13:26:18.270Z,3.07
2023-04-09T13:28:46.814Z,3.20
2023-04-09T13:31:15.276Z,3.20
2023-04-09T13:33:45.109Z,3.03
2023-04-09T13:36:13.597Z,3.17
2023-04-09T13:38:42.054Z,3.00
2023-04-09T13:41:10.682Z,3.47
2023-04-09T13:43:40.532Z,3.70
2023-04-09T13:46:09.077Z,2.87
2023-04-09T13:48:37.513Z,3.03
2023-04-09T13:51:07.712Z,3.10
2023-04-09T13:53:36.237Z,3.03
2023-04-09T13:56:04.627Z,3.27
2023-04-09T13:58:33.054Z,3.33
2023-04-09T14:01:03.006Z,3.20
2023-04-09T14:03:31.674Z,3.17
2023-04-09T14:06:00.176Z,3.40
2023-04-09T14:08:31.412Z,2.97
2023-04-09T14:10:59.803Z,3.13
2023-04-09T14:13:28.236Z,3.37
2023-04-09T14:15:58.608Z,3.50
2023-04-09T14:18:28.315Z,3.50
2023-04-09T14:20:56.772Z,3.17
2023-04-09T14:23:25.344Z,3.17
2023-04-09T14:25:55.143Z,3.47
2023-04-09T14:28:23.562Z,3.30
2023-04-09T14:30:52.001Z,3.07
2023-04-09T14:33:20.658Z,3.83
2023-04-09T14:35:49.406Z,3.70
2023-04-09T14:38:17.907Z,4.03
2023-04-09T14:40:46.765Z,3.27
2023-04-09T14:43:16.632Z,3.37
2023-04-09T14:45:45.035Z,3.03
2023-04-09T14:48:13.441Z,2.90
2023-04-09T14:50:43.110Z,2.90
2023-04-09T14:53:12.402Z,3.10
2023-04-09T14:55:40.804Z,3.10
2023-04-09T14:58:09.233Z,3.10
2023-04-09T15:00:39.432Z,3.23
2023-04-09T15:03:08.006Z,3.10
2023-04-09T15:05:36.627Z,2.97
2023-04-09T15:08:05.085Z,3.00
2023-04-09T15:10:33.503Z,2.70
2023-04-09T15:13:01.908Z,3.10
2023-04-09T15:15:30.634Z,3.03
2023-04-09T15:18:05.693Z,3.00
2023-04-09T15:20:37.713Z,2.63
2023-04-09T15:23:06.256Z,2.47
2023-04-09T15:25:34.686Z,2.80
2023-04-09T15:28:03.517Z,2.90
2023-04-09T15:30:32.008Z,2.50
2023-04-09T15:33:01.857Z,2.80
2023-04-09T15:35:30.518Z,2.87
2023-04-09T15:37:59.208Z,2.80
2023-04-09T15:40:29.042Z,2.67
2023-04-09T15:42:57.473Z,2.80
2023-04-09T15:45:25.921Z,2.63
2023-04-09T15:47:54.440Z,2.60
2023-04-09T15:50:24.488Z,2.43
2023-04-09T15:52:53.110Z,2.60
2023-04-09T15:55:23.021Z,2.90
2023-04-09T15:57:51.429Z,3.20
2023-04-09T16:00:19.884Z,2.90
2023-04-09T16:02:48.254Z,2.80
2023-04-09T16:05:16.670Z,2.77
2023-04-09T16:07:46.774Z,2.50
2023-04-09T16:10:15.749Z,2.73
2023-04-09T16:12:44.150Z,2.67
2023-04-09T16:15:12.971Z,2.47
2023-04-09T16:17:41.473Z,2.43
2023-04-09T16:20:10.440Z,2.40
2023-04-09T16:22:38.884Z,2.40
2023-04-09T16:25:09.451Z,2.47
2023-04-09T16:27:37.881Z,2.30
2023-04-09T16:30:06.623Z,2.40
2023-04-09T16:32:35.071Z,2.10
2023-04-09T16:35:03.466Z,2.28
2023-04-09T16:37:32.207Z,2.40
2023-04-09T16:40:01.258Z,2.30
2023-04-09T16:42:32.848Z,2.30
2023-04-09T16:45:04.369Z,2.30
2023-04-09T16:47:32.818Z,2.27
2023-04-09T16:50:01.272Z,2.50
2023-04-09T16:52:30.104Z,2.55
2023-04-09T16:54:58.974Z,2.53
2023-04-09T16:57:27.403Z,2.78
2023-04-09T16:59:57.988Z,2.40
2023-04-09T17:02:27.704Z,2.77
2023-04-09T17:04:56.657Z,2.90
2023-04-09T17:07:25.373Z,3.13
2023-04-09T17:09:53.894Z,3.17
2023-04-09T17:12:24.298Z,3.23
2023-04-09T17:14:53.068Z,3.27
2023-04-09T17:17:22.919Z,3.30
2023-04-09T17:19:51.371Z,3.10
2023-04-09T17:22:19.814Z,3.30
2023-04-09T17:24:48.247Z,3.20
2023-04-09T17:27:19.630Z,3.10
2023-04-09T17:29:48.043Z,3.13
2023-04-09T17:32:16.524Z,3.10
2023-04-09T17:34:49.309Z,3.43
2023-04-09T17:37:17.739Z,2.93
2023-04-09T17:39:48.055Z,3.03
2023-04-09T17:42:16.612Z,3.17
2023-04-09T17:44:45.204Z,2.83
2023-04-09T17:47:13.615Z,3.67
2023-04-09T17:49:42.600Z,3.87
2023-04-09T17:52:13.159Z,4.40
2023-04-09T17:54:41.922Z,4.17
2023-04-09T17:57:10.349Z,3.87
2023-04-09T17:59:39.371Z,3.50
2023-04-09T18:02:07.948Z,3.70
2023-04-09T18:04:36.844Z,3.60
2023-04-09T18:07:05.924Z,3.50
2023-04-09T18:09:35.737Z,3.83
2023-04-09T18:12:04.166Z,3.63
2023-04-09T18:14:32.755Z,3.43
2023-04-09T18:17:01.215Z,4.10
2023-04-09T18:19:29.671Z,4.67
2023-04-09T18:21:58.064Z,4.00
2023-04-09T18:24:26.815Z,4.60
2023-04-09T18:26:57.641Z,4.13
2023-04-09T18:29:27.498Z,4.37
2023-04-09T18:31:56.893Z,4.27
2023-04-09T18:34:25.364Z,4.13
2023-04-09T18:36:54.032Z,3.90
2023-04-09T18:39:22.976Z,4.03
2023-04-09T18:41:51.617Z,4.10
2023-04-09T18:44:21.788Z,3.83
2023-04-09T18:46:50.291Z,4.17
2023-04-09T18:49:18.750Z,3.90
2023-04-09T18:51:47.326Z,4.13
2023-04-09T18:54:15.770Z,3.87
2023-04-09T18:56:46.551Z,3.90
2023-04-09T18:59:15.096Z,3.47
2023-04-09T19:01:44.999Z,3.90
2023-04-09T19:04:13.621Z,3.53
2023-04-09T19:06:42.076Z,3.50
2023-04-09T19:09:10.505Z,3.40
2023-04-09T19:11:38.940Z,3.50
2023-04-09T19:14:07.424Z,4.00
2023-04-09T19:16:35.878Z,3.50
2023-04-09T19:19:05.775Z,3.37
2023-04-09T19:21:35.277Z,3.63
2023-04-09T19:24:05.546Z,3.00
2023-04-09T19:26:34.607Z,3.40
2023-04-09T19:29:03.704Z,2.87
2023-04-09T19:31:32.191Z,3.10
2023-04-09T19:34:00.751Z,3.47
2023-04-09T19:36:31.992Z,3.13
2023-04-09T19:39:00.407Z,3.30
2023-04-09T19:41:28.851Z,2.97
2023-04-09T19:43:57.434Z,2.97
2023-04-09T19:46:25.903Z,3.57
2023-04-09T19:48:54.626Z,3.00
2023-04-09T19:51:23.233Z,3.53
2023-04-09T19:53:53.005Z,3.40
2023-04-09T19:56:22.196Z,3.13
2023-04-09T19:58:50.928Z,3.13
2023-04-09T20:01:19.612Z,3.00
2023-04-09T20:03:48.886Z,3.43
2023-04-09T20:06:18.248Z,3.20
2023-04-09T20:08:46.769Z,3.30
2023-04-09T20:11:19.357Z,3.17
2023-04-09T20:13:48.203Z,3.50
2023-04-09T20:16:16.737Z,3.30
2023-04-09T20:18:45.190Z,3.50
2023-04-09T20:21:14.628Z,3.80
2023-04-09T20:23:45.188Z,3.33
2023-04-09T20:26:13.771Z,3.27
2023-04-09T20:28:43.784Z,3.33
2023-04-09T20:31:12.224Z,3.10
2023-04-09T20:33:40.752Z,3.70
2023-04-09T20:36:15.991Z,3.67
2023-04-09T20:38:44.510Z,2.93
2023-04-09T20:41:13.116Z,3.60
2023-04-09T20:43:42.931Z,3.40
2023-04-09T20:46:11.926Z,3.50
2023-04-09T20:48:40.422Z,3.00
2023-04-09T20:51:10.743Z,3.33
2023-04-09T20:53:39.452Z,3.50
2023-04-09T20:56:09.197Z,3.40
2023-04-09T20:58:37.852Z,3.37
2023-04-09T21:01:09.455Z,3.57
2023-04-09T21:03:38.520Z,3.47
2023-04-09T21:06:08.206Z,3.33
2023-04-09T21:08:38.474Z,3.57
2023-04-09T21:11:07.239Z,3.30
2023-04-09T21:13:51.103Z,3.43
2023-04-09T21:16:26.087Z,3.27
2023-04-09T21:18:54.843Z,3.47
2023-04-09T21:21:23.433Z,3.90
2023-04-09T21:23:51.860Z,3.07
2023-04-09T21:26:20.292Z,3.30
2023-04-09T21:28:50.673Z,3.30
2023-04-09T21:31:19.650Z,3.47
2023-04-09T21:33:49.605Z,3.40
2023-04-09T21:36:18.130Z,3.40
2023-04-09T21:38:46.615Z,3.53
2023-04-09T21:41:15.196Z,3.20
2023-04-09T21:43:43.627Z,3.20
2023-04-09T21:46:12.059Z,3.47
2023-04-09T21:48:40.971Z,3.50
2023-04-09T21:51:12.495Z,3.80
2023-04-09T21:53:40.923Z,3.50
2023-04-09T21:56:09.665Z,3.70
2023-04-09T21:58:38.471Z,3.40
2023-04-09T22:01:15.854Z,3.43
2023-04-09T22:03:51.376Z,3.23
2023-04-09T22:06:21.340Z,3.50
2023-04-09T22:08:56.366Z,3.47
2023-04-09T22:11:27.013Z,3.30
2023-04-09T22:13:55.491Z,3.47
2023-04-09T22:16:24.126Z,3.90
2023-04-09T22:18:53.531Z,3.33
2023-04-09T22:21:23.610Z,3.30
2023-04-09T22:23:52.020Z,3.60
2023-04-09T22:26:21.580Z,3.73
2023-04-09T22:28:50.341Z,3.67
2023-04-09T22:31:19.253Z,3.50
2023-04-09T22:33:47.733Z,3.30
2023-04-09T22:36:16.338Z,3.80
2023-04-09T22:38:46.348Z,3.43
2023-04-09T22:41:16.018Z,3.80
2023-04-09T22:43:44.599Z,3.40
2023-04-09T22:46:13.019Z,3.30
2023-04-09T22:48:44.870Z,3.40
2023-04-09T22:51:13.981Z,3.50
2023-04-09T22:53:42.499Z,3.20
2023-04-09T22:56:12.769Z,3.27
2023-04-09T22:58:41.603Z,3.40
2023-04-09T23:01:10.017Z,3.33
2023-04-09T23:03:38.553Z,3.37
2023-04-09T23:06:07.318Z,3.60
2023-04-09T23:08:35.721Z,3.37
2023-04-09T23:11:05.363Z,3.10
2023-04-09T23:13:35.264Z,3.13
2023-04-09T23:16:06.202Z,3.10
2023-04-09T23:18:34.988Z,3.00
2023-04-09T23:21:05.464Z,2.90
2023-04-09T23:23:33.923Z,3.03
2023-04-09T23:26:02.356Z,2.93
2023-04-09T23:28:30.794Z,2.70
2023-04-09T23:31:00.763Z,3.00
2023-04-09T23:33:29.242Z,2.63
2023-04-09T23:35:57.718Z,2.80
2023-04-09T23:38:26.214Z,3.03
2023-04-09T23:40:54.682Z,2.60
2023-04-09T23:43:23.185Z,2.83
2023-04-09T23:45:51.638Z,2.97
2023-04-09T23:48:21.568Z,2.87
2023-04-09T23:50:49.996Z,3.20
2023-04-09T23:53:18.429Z,3.00
2023-04-09T23:55:47.856Z,3.00
2023-04-09T23:58:16.302Z,2.97
